Time;durP1;ratioP1;P1;durP2;ratioP2;P2;SDS_P1;SDS_P2;PMS_P1;PMS_P2;Temp;Humidity;BMP_temperature;BMP_pressure;BME280_temperature;BME280_humidity;BME280_pressure;Samples;Min_cycle;Max_cycle;Signal;HPM_P1;HPM_P2
2024/03/08 00:02:14;;;;;;;22.27;13.95;;;;;;;5.18;100.00;92318.84;4759230;30;20044;-81
2024/03/08 00:04:40;;;;;;;29.50;14.57;;;;;;;5.21;100.00;92323.50;4768539;30;20173;-82
2024/03/08 00:07:06;;;;;;;24.95;14.65;;;;;;;5.28;100.00;92325.09;4758745;30;20133;-82
2024/03/08 00:09:32;;;;;;;20.60;14.10;;;;;;;5.26;100.00;92333.13;4758427;30;20048;-82
2024/03/08 00:11:57;;;;;;;22.88;13.52;;;;;;;5.31;100.00;92324.56;4771376;30;20066;-82
2024/03/08 00:14:23;;;;;;;24.50;14.60;;;;;;;5.26;100.00;92321.97;4772093;30;20048;-81
2024/03/08 00:16:48;;;;;;;21.60;14.80;;;;;;;5.25;100.00;92328.22;4766222;30;20508;-82
2024/03/08 00:19:14;;;;;;;21.95;14.02;;;;;;;5.28;100.00;92320.66;4768771;30;20044;-82
2024/03/08 00:21:41;;;;;;;23.10;14.13;;;;;;;5.43;100.00;92330.31;4761766;30;20048;-82
2024/03/08 00:24:06;;;;;;;24.35;15.18;;;;;;;5.34;100.00;92321.47;4769975;30;20043;-82
2024/03/08 00:26:33;;;;;;;24.55;13.63;;;;;;;5.27;100.00;92326.13;4753234;30;20054;-82
2024/03/08 00:28:58;;;;;;;22.70;14.70;;;;;;;5.27;100.00;92321.72;4766015;30;20048;-81
2024/03/08 00:31:24;;;;;;;23.63;14.55;;;;;;;5.25;100.00;92318.59;4759224;30;20035;-82
2024/03/08 00:33:50;;;;;;;25.10;14.88;;;;;;;5.29;100.00;92326.63;4767078;30;20510;-82
2024/03/08 00:36:16;;;;;;;25.60;13.73;;;;;;;5.36;100.00;92317.59;4775303;30;20040;-81
2024/03/08 00:38:42;;;;;;;25.70;16.20;;;;;;;5.40;100.00;92325.63;4767855;30;20054;-81
2024/03/08 00:41:07;;;;;;;22.02;15.38;;;;;;;5.45;100.00;92319.66;4764161;30;20032;-82
2024/03/08 00:43:34;;;;;;;26.98;16.55;;;;;;;5.34;100.00;92324.06;4764005;30;20044;-82
2024/03/08 00:46:01;;;;;;;24.90;15.65;;;;;;;5.22;100.00;92324.28;4760132;30;20055;-82
2024/03/08 00:48:26;;;;;;;23.17;13.23;;;;;;;5.29;100.00;92326.63;4747539;30;20078;-82
2024/03/08 00:50:52;;;;;;;24.35;13.40;;;;;;;5.18;100.00;92321.44;4763990;30;20040;-82
2024/03/08 00:53:18;;;;;;;22.02;13.35;;;;;;;5.35;100.00;92325.63;4767745;30;20055;-81
2024/03/08 00:55:46;;;;;;;25.92;15.35;;;;;;;5.28;100.00;92314.72;4769721;30;20051;-81
2024/03/08 00:58:12;;;;;;;27.58;15.13;;;;;;;5.18;100.00;92318.06;4765916;30;20109;-82
2024/03/08 01:00:38;;;;;;;20.20;14.05;;;;;;;5.32;100.00;92315.75;4765763;30;20048;-81
2024/03/08 01:03:05;;;;;;;20.17;12.88;;;;;;;5.29;100.00;92316.25;4765466;30;20047;-81
2024/03/08 01:05:30;;;;;;;15.55;9.70;;;;;;;5.39;100.00;92316.28;4760987;30;20052;-82
2024/03/08 01:07:56;;;;;;;25.88;15.98;;;;;;;5.19;100.00;92317.03;4767482;30;20072;-81
2024/03/08 01:10:22;;;;;;;30.70;18.40;;;;;;;4.94;100.00;92313.34;4762922;30;20071;-82
2024/03/08 01:12:49;;;;;;;25.55;17.10;;;;;;;4.90;100.00;92311.50;4759465;30;20118;-82
2024/03/08 01:15:15;;;;;;;29.50;18.52;;;;;;;4.91;100.00;92313.06;4760338;30;20044;-82
2024/03/08 01:17:41;;;;;;;30.13;17.73;;;;;;;4.93;100.00;92300.59;4764690;30;20036;-82
2024/03/08 01:20:10;;;;;;;29.65;18.90;;;;;;;5.09;100.00;92310.00;4764252;30;20134;-82
2024/03/08 01:22:36;;;;;;;29.25;17.83;;;;;;;5.12;100.00;92306.88;4763079;30;20040;-81
2024/03/08 01:25:04;;;;;;;30.20;18.73;;;;;;;5.01;100.00;92300.91;4763761;30;20075;-81
2024/03/08 01:27:30;;;;;;;29.10;17.88;;;;;;;4.98;100.00;92298.03;4761854;30;20044;-82
2024/03/08 01:29:56;;;;;;;26.55;17.30;;;;;;;4.92;100.00;92294.66;4762975;30;20500;-81
2024/03/08 01:32:23;;;;;;;24.02;17.27;;;;;;;4.99;100.00;92302.19;4756101;30;20040;-82
2024/03/08 01:34:49;;;;;;;26.48;18.17;;;;;;;4.78;100.00;92270.25;4755153;30;20044;-81
2024/03/08 01:37:14;;;;;;;31.05;18.70;;;;;;;4.92;100.00;92299.06;4769746;30;20099;-81
2024/03/08 01:39:40;;;;;;;28.35;18.05;;;;;;;4.98;100.00;92298.03;4764568;30;20034;-82
2024/03/08 01:42:05;;;;;;;28.45;17.20;;;;;;;4.96;100.00;92300.88;4771199;30;20066;-82
2024/03/08 01:44:31;;;;;;;29.20;18.45;;;;;;;5.19;100.00;92291.06;4761008;30;20044;-82
2024/03/08 01:46:56;;;;;;;31.40;18.98;;;;;;;5.03;100.00;92287.66;4756065;30;20133;-82
2024/03/08 01:49:25;;;;;;;26.92;17.98;;;;;;;5.03;100.00;92292.09;4757645;30;20276;-82
2024/03/08 01:51:51;;;;;;;24.05;16.55;;;;;;;4.96;100.00;92284.56;4769686;30;20511;-81
2024/03/08 01:54:19;;;;;;;26.58;17.17;;;;;;;4.86;100.00;92282.69;4760511;30;20048;-81
2024/03/08 01:56:46;;;;;;;26.60;17.33;;;;;;;4.83;100.00;92285.03;4765285;30;20044;-82
2024/03/08 01:59:12;;;;;;;31.27;18.95;;;;;;;4.83;100.00;92277.25;4756227;30;20044;-82
2024/03/08 02:01:38;;;;;;;27.92;17.70;;;;;;;4.83;100.00;92279.84;4766477;30;20101;-82
2024/03/08 02:04:05;;;;;;;31.20;18.73;;;;;;;4.81;100.00;92272.31;4756558;30;20040;-82
2024/03/08 02:06:31;;;;;;;26.42;18.15;;;;;;;4.82;100.00;92276.47;4763900;30;20508;-83
2024/03/08 02:08:56;;;;;;;26.08;17.40;;;;;;;4.82;100.00;92257.53;4759240;30;20088;-83
2024/03/08 02:11:22;;;;;;;26.90;18.02;;;;;;;4.80;100.00;92262.97;4761674;30;20048;-82
2024/03/08 02:13:48;;;;;;;28.52;18.10;;;;;;;4.78;100.00;92260.63;4759508;30;20064;-82
2024/03/08 02:16:20;;;;;;;27.73;17.15;;;;;;;4.91;100.00;92254.19;4758498;30;20047;-81
2024/03/08 02:18:46;;;;;;;29.73;18.27;;;;;;;4.87;100.00;92262.75;4761274;30;20448;-82
2024/03/08 02:21:12;;;;;;;27.90;18.23;;;;;;;4.78;100.00;92252.84;4764611;30;20040;-82
2024/03/08 02:23:38;;;;;;;32.15;18.60;;;;;;;4.75;100.00;92250.78;4761833;30;20044;-82
2024/03/08 02:26:04;;;;;;;30.38;17.95;;;;;;;4.75;100.00;92255.97;4762506;30;20689;-82
2024/03/08 02:28:30;;;;;;;28.67;17.40;;;;;;;4.89;100.00;92247.72;4762422;30;20181;-82
2024/03/08 02:30:56;;;;;;;29.70;17.52;;;;;;;4.93;100.00;92252.13;4772485;30;20079;-82
2024/03/08 02:33:23;;;;;;;20.70;12.52;;;;;;;5.01;100.00;92249.00;4769907;30;20046;-82
2024/03/08 02:35:49;;;;;;;27.08;18.40;;;;;;;4.85;100.00;92242.25;4760833;30;20044;-81
2024/03/08 02:38:16;;;;;;;30.30;18.60;;;;;;;4.86;100.00;92245.59;4762609;30;20024;-82
2024/03/08 02:40:46;;;;;;;28.52;18.48;;;;;;;4.85;100.00;92250.03;4765887;30;20105;-82
2024/03/08 02:43:14;;;;;;;26.67;18.30;;;;;;;4.82;100.00;92244.56;4760644;30;20052;-82
2024/03/08 02:45:41;;;;;;;28.27;17.45;;;;;;;4.82;100.00;92249.75;4762671;30;20052;-82
2024/03/08 02:48:07;;;;;;;30.40;18.67;;;;;;;4.78;100.00;92250.25;4764835;30;20086;-82
2024/03/08 02:50:34;;;;;;;31.98;18.63;;;;;;;4.77;100.00;92248.72;4766130;30;20139;-82
2024/03/08 02:53:01;;;;;;;28.15;17.63;;;;;;;4.75;100.00;92245.59;4762777;30;20630;-82
2024/03/08 02:55:27;;;;;;;28.08;18.48;;;;;;;4.95;100.00;92254.44;4761953;30;20055;-82
2024/03/08 02:57:56;;;;;;;29.70;16.13;;;;;;;4.82;100.00;92247.16;4763727;30;20054;-81
2024/03/08 03:00:22;;;;;;;26.98;16.92;;;;;;;4.75;100.00;92243.00;4763513;30;20476;-81
2024/03/08 03:02:53;;;;;;;25.63;17.38;;;;;;;4.76;100.00;92247.16;4763152;30;20039;-82
2024/03/08 03:05:20;;;;;;;25.90;16.65;;;;;;;4.77;100.00;92247.91;4763316;30;20429;-82
2024/03/08 03:07:45;;;;;;;29.65;16.58;;;;;;;4.70;100.00;92242.19;4756295;30;20049;-82
2024/03/08 03:10:12;;;;;;;21.65;14.75;;;;;;;4.93;100.00;92246.94;4763040;30;20055;-82
2024/03/08 03:12:38;;;;;;;27.10;14.65;;;;;;;4.92;100.00;92249.78;4767525;30;20044;-82
2024/03/08 03:15:04;;;;;;;22.15;14.57;;;;;;;4.89;100.00;92248.47;4773370;30;20066;-82
2024/03/08 03:17:30;;;;;;;25.48;15.90;;;;;;;4.84;100.00;92240.69;4761508;30;20067;-82
2024/03/08 03:19:55;;;;;;;27.60;15.57;;;;;;;4.76;100.00;92239.38;4765098;30;20109;-82
2024/03/08 03:22:21;;;;;;;30.92;18.85;;;;;;;4.65;100.00;92237.78;4762676;30;20043;-82
2024/03/08 03:24:46;;;;;;;26.60;17.65;;;;;;;4.65;100.00;92240.38;4763395;30;20044;-82
2024/03/08 03:27:14;;;;;;;29.73;17.30;;;;;;;4.62;100.00;92238.31;4774060;30;20455;-81
2024/03/08 03:29:45;;;;;;;30.23;18.08;;;;;;;4.61;100.00;92233.34;4770251;30;20541;-81
2024/03/08 03:32:11;;;;;;;28.25;17.88;;;;;;;4.51;100.00;92236.72;4772194;30;20067;-81
2024/03/08 03:34:38;;;;;;;31.50;21.08;;;;;;;4.49;100.00;92228.41;4764036;30;20068;-81
2024/03/08 03:37:04;;;;;;;35.60;21.73;;;;;;;4.40;100.00;92232.53;4765163;30;20101;-81
2024/03/08 03:39:34;;;;;;;35.45;22.23;;;;;;;4.36;100.00;92232.25;4770903;30;20050;-82
2024/03/08 03:42:02;;;;;;;30.63;20.88;;;;;;;4.32;100.00;92231.97;4761077;30;20043;-82
2024/03/08 03:44:28;;;;;;;32.22;21.13;;;;;;;4.31;100.00;92234.81;4764966;30;20072;-81
2024/03/08 03:46:54;;;;;;;34.55;21.33;;;;;;;4.34;100.00;92231.72;4758403;30;20360;-82
2024/03/08 03:49:20;;;;;;;31.80;20.55;;;;;;;4.36;100.00;92233.00;4760161;30;20054;-81
2024/03/08 03:51:46;;;;;;;33.97;19.98;;;;;;;4.40;100.00;92227.34;4767930;30;20107;-82
2024/03/08 03:54:12;;;;;;;34.83;20.15;;;;;;;4.59;100.00;92231.00;4770795;30;20048;-81
2024/03/08 03:56:39;;;;;;;32.38;19.85;;;;;;;4.51;100.00;92234.13;4765340;30;20028;-82
2024/03/08 03:59:06;;;;;;;30.92;19.63;;;;;;;4.33;100.00;92228.34;4771812;30;20039;-82
2024/03/08 04:01:33;;;;;;;29.98;19.60;;;;;;;4.32;100.00;92242.34;4761927;30;20051;-82
2024/03/08 04:03:58;;;;;;;26.10;15.50;;;;;;;4.50;100.00;92235.13;4759548;30;20269;-82
2024/03/08 04:06:24;;;;;;;27.27;19.17;;;;;;;4.30;100.00;92236.63;4763547;30;20049;-81
2024/03/08 04:08:49;;;;;;;28.00;18.73;;;;;;;4.43;100.00;92242.38;4769546;30;20047;-82
2024/03/08 04:11:16;;;;;;;26.17;15.85;;;;;;;4.36;100.00;92240.00;4764951;30;20115;-81
2024/03/08 04:13:45;;;;;;;30.92;19.00;;;;;;;4.31;100.00;92238.19;4765370;30;20133;-81
2024/03/08 04:16:11;;;;;;;28.02;18.40;;;;;;;4.24;100.00;92237.63;4765441;30;20040;-82
2024/03/08 04:18:37;;;;;;;26.80;17.75;;;;;;;4.17;100.00;92232.69;4766973;30;20058;-81
2024/03/08 04:21:06;;;;;;;29.30;17.55;;;;;;;4.19;100.00;92237.63;4758093;30;20119;-81
2024/03/08 04:23:35;;;;;;;27.83;16.13;;;;;;;4.24;100.00;92237.63;4759311;30;20556;-82
2024/03/08 04:26:02;;;;;;;23.10;16.00;;;;;;;4.19;100.00;92237.63;4771918;30;20043;-82
2024/03/08 04:28:27;;;;;;;25.05;13.48;;;;;;;4.35;100.00;92236.66;4763975;30;20624;-81
2024/03/08 04:30:53;;;;;;;25.85;16.15;;;;;;;4.33;100.00;92230.16;4766398;30;20040;-81
2024/03/08 04:33:18;;;;;;;27.67;16.60;;;;;;;4.29;100.00;92237.66;4751420;30;20054;-82
2024/03/08 04:35:45;;;;;;;27.67;16.73;;;;;;;4.30;100.00;92238.44;4769063;30;20052;-82
2024/03/08 04:38:11;;;;;;;27.50;17.52;;;;;;;4.18;100.00;92242.00;4764980;30;20044;-82
2024/03/08 04:40:37;;;;;;;26.38;16.33;;;;;;;4.14;100.00;92237.59;4767637;30;20095;-82
2024/03/08 04:43:02;;;;;;;26.70;16.85;;;;;;;4.13;100.00;92230.84;4769521;30;20047;-81
2024/03/08 04:45:28;;;;;;;27.65;16.10;;;;;;;4.11;100.00;92236.28;4771605;30;20047;-81
2024/03/08 04:47:53;;;;;;;27.67;17.02;;;;;;;4.06;100.00;92227.72;4761018;30;20147;-82
2024/03/08 04:50:19;;;;;;;26.95;17.13;;;;;;;4.16;100.00;92238.88;4764503;30;20526;-82
2024/03/08 04:52:44;;;;;;;25.25;16.33;;;;;;;4.19;100.00;92237.63;4762675;30;20064;-82
2024/03/08 04:55:10;;;;;;;28.52;18.38;;;;;;;4.14;100.00;92235.00;4769393;30;20532;-82
2024/03/08 04:57:35;;;;;;;28.58;17.27;;;;;;;4.12;100.00;92237.06;4757075;30;20040;-81
2024/03/08 05:00:04;;;;;;;27.10;16.98;;;;;;;4.07;100.00;92242.22;4769096;30;20035;-82
2024/03/08 05:02:29;;;;;;;27.17;17.02;;;;;;;4.06;100.00;92246.63;4760604;30;20067;-82
2024/03/08 05:04:55;;;;;;;25.65;16.80;;;;;;;4.13;100.00;92243.81;4759517;30;20044;-82
2024/03/08 05:07:20;;;;;;;26.23;15.88;;;;;;;4.21;100.00;92238.16;4763174;30;20084;-81
2024/03/08 05:09:51;;;;;;;21.17;12.55;;;;;;;4.35;100.00;92241.06;4754853;30;20032;-81
2024/03/08 05:12:18;;;;;;;26.88;16.15;;;;;;;4.16;100.00;92243.28;4770353;30;20054;-81
2024/03/08 05:14:49;;;;;;;28.55;16.05;;;;;;;4.15;100.00;92236.56;4766020;30;20046;-81
2024/03/08 05:17:16;;;;;;;27.35;15.73;;;;;;;4.07;100.00;92247.41;4760380;30;20042;-82
2024/03/08 05:19:42;;;;;;;26.70;15.80;;;;;;;4.02;100.00;92240.38;4754893;30;20071;-82
2024/03/08 05:22:08;;;;;;;28.10;16.27;;;;;;;4.02;100.00;92237.78;4762567;30;20099;-81
2024/03/08 05:24:34;;;;;;;24.75;15.15;;;;;;;4.01;100.00;92227.69;4765157;30;20080;-81
2024/03/08 05:27:00;;;;;;;28.27;16.70;;;;;;;3.91;100.00;92241.34;4769588;30;20039;-82
2024/03/08 05:29:26;;;;;;;28.17;16.30;;;;;;;3.88;100.00;92236.69;4761019;30;20074;-81
2024/03/08 05:31:52;;;;;;;26.30;16.48;;;;;;;3.93;100.00;92237.47;4760133;30;20120;-82
2024/03/08 05:34:19;;;;;;;28.00;16.80;;;;;;;4.07;100.00;92242.22;4767734;30;20036;-83
2024/03/08 05:36:51;;;;;;;27.40;16.10;;;;;;;3.96;100.00;92242.19;4759612;30;20052;-82
2024/03/08 05:39:17;;;;;;;32.25;18.20;;;;;;;3.96;100.00;92244.78;4767000;30;20056;-82
2024/03/08 05:41:44;;;;;;;26.40;16.95;;;;;;;3.89;100.00;92244.19;4756735;30;20070;-81
2024/03/08 05:44:10;;;;;;;30.17;17.65;;;;;;;3.91;100.00;92246.53;4752711;30;20048;-82
2024/03/08 05:46:37;;;;;;;29.05;17.40;;;;;;;3.83;100.00;92239.22;4752945;30;20079;-83
2024/03/08 05:49:05;;;;;;;29.88;17.55;;;;;;;3.87;100.00;92245.47;4753781;30;20448;-81
2024/03/08 05:51:39;;;;;;;29.73;18.55;;;;;;;3.92;100.00;92242.94;4763744;30;20036;-81
2024/03/08 05:54:06;;;;;;;26.17;15.25;;;;;;;3.99;100.00;92246.06;4753184;30;20126;-81
2024/03/08 05:56:32;;;;;;;26.55;16.52;;;;;;;3.92;100.00;92254.06;4757432;30;20051;-82
2024/03/08 05:58:58;;;;;;;33.65;16.38;;;;;;;3.81;100.00;92246.50;4758940;30;20036;-82
2024/03/08 06:01:28;;;;;;;29.27;16.77;;;;;;;3.86;100.00;92243.94;4754096;30;20050;-82
2024/03/08 06:03:55;;;;;;;28.48;16.90;;;;;;;3.85;100.00;92252.72;4757850;30;20040;-81
2024/03/08 06:06:22;;;;;;;29.65;17.88;;;;;;;3.80;100.00;92250.88;4759814;30;20044;-82
2024/03/08 06:08:51;;;;;;;30.88;18.92;;;;;;;3.78;100.00;92255.53;4756668;30;20039;-82
2024/03/08 06:11:18;;;;;;;29.38;17.42;;;;;;;3.76;100.00;92257.59;4755440;30;20040;-82
2024/03/08 06:13:44;;;;;;;27.00;15.23;;;;;;;3.83;100.00;92255.56;4760975;30;20078;-82
2024/03/08 06:16:10;;;;;;;32.67;17.90;;;;;;;3.81;100.00;92247.28;4763419;30;20120;-80
2024/03/08 06:18:42;;;;;;;27.90;17.40;;;;;;;3.84;100.00;92259.72;4759302;30;20081;-82
2024/03/08 06:21:11;;;;;;;30.50;17.88;;;;;;;3.76;100.00;92257.59;4765213;30;20096;-81
2024/03/08 06:23:38;;;;;;;29.40;17.38;;;;;;;3.72;100.00;92259.13;4768693;30;20040;-82
2024/03/08 06:26:04;;;;;;;28.35;16.70;;;;;;;3.80;100.00;92261.22;4761019;30;20062;-82
2024/03/08 06:28:30;;;;;;;30.17;18.33;;;;;;;3.75;100.00;92261.97;4759604;30;20048;-82
2024/03/08 06:30:55;;;;;;;34.13;18.35;;;;;;;3.77;100.00;92260.97;4761201;30;20033;-83
2024/03/08 06:33:21;;;;;;;30.20;18.15;;;;;;;3.74;100.00;92264.84;4752424;30;20044;-83
2024/03/08 06:35:47;;;;;;;23.88;13.43;;;;;;;3.87;100.00;92266.19;4752499;30;20044;-82
2024/03/08 06:38:12;;;;;;;29.10;17.77;;;;;;;3.76;100.00;92267.97;4755355;30;20064;-83
2024/03/08 06:40:38;;;;;;;27.77;14.48;;;;;;;3.79;100.00;92264.84;4750370;30;20048;-80
2024/03/08 06:43:06;;;;;;;26.33;16.50;;;;;;;3.88;100.00;92272.94;4755931;30;20048;-82
2024/03/08 06:45:32;;;;;;;23.48;14.80;;;;;;;3.89;100.00;92269.31;4758700;30;20043;-81
2024/03/08 06:47:58;;;;;;;29.60;17.27;;;;;;;3.77;100.00;92266.91;4761092;30;20107;-81
2024/03/08 06:50:23;;;;;;;29.70;16.05;;;;;;;3.83;100.00;92276.28;4765085;30;20111;-83
2024/03/08 06:52:53;;;;;;;26.83;16.25;;;;;;;3.70;100.00;92276.72;4757119;30;20312;-82
2024/03/08 06:55:22;;;;;;;26.80;16.15;;;;;;;3.69;100.00;92281.13;4771413;30;20527;-82
2024/03/08 06:57:47;;;;;;;31.98;18.02;;;;;;;3.74;100.00;92278.56;4765097;30;20502;-83
2024/03/08 07:00:18;;;;;;;28.25;15.75;;;;;;;3.84;100.00;92274.47;4765325;30;20058;-81
2024/03/08 07:02:48;;;;;;;26.23;14.82;;;;;;;3.82;100.00;92279.13;4759665;30;20142;-82
2024/03/08 07:05:16;;;;;;;25.98;15.93;;;;;;;3.83;100.00;92276.28;4754106;30;20051;-82
2024/03/08 07:07:41;;;;;;;28.05;17.70;;;;;;;3.80;100.00;92281.94;4753693;30;20032;-83
2024/03/08 07:10:10;;;;;;;25.98;14.88;;;;;;;3.84;100.00;92270.06;4761069;30;20062;-81
2024/03/08 07:12:37;;;;;;;23.83;13.80;;;;;;;3.83;100.00;92271.09;4760504;30;20055;-82
2024/03/08 07:15:05;;;;;;;25.05;14.93;;;;;;;3.89;100.00;92282.25;4759791;30;20044;-82
2024/03/08 07:17:32;;;;;;;29.42;15.90;;;;;;;3.77;100.00;92277.28;4762077;30;20036;-82
2024/03/08 07:19:59;;;;;;;29.80;16.17;;;;;;;3.70;100.00;92281.88;4753931;30;20051;-81
2024/03/08 07:22:25;;;;;;;26.52;14.98;;;;;;;3.86;100.00;92278.38;4754069;30;20394;-81
2024/03/08 07:25:17;;;;;;;32.88;17.40;;;;;;;3.80;100.00;92281.16;4760533;30;20059;-81
2024/03/08 07:27:41;;;;;;;29.20;16.67;;;;;;;3.80;100.00;92281.16;4755233;30;20052;-82
2024/03/08 07:30:10;;;;;;;29.17;16.92;;;;;;;3.80;100.00;92281.16;4760432;30;20124;-80
2024/03/08 07:32:35;;;;;;;32.80;16.38;;;;;;;3.76;100.00;92280.91;4765157;30;20044;-82
2024/03/08 07:35:02;;;;;;;35.72;16.83;;;;;;;3.77;100.00;92282.44;4760901;30;20044;-83
2024/03/08 07:37:27;;;;;;;30.45;16.95;;;;;;;3.94;100.00;92284.88;4766478;30;20511;-82
2024/03/08 07:39:53;;;;;;;27.20;16.77;;;;;;;4.00;100.00;92283.13;4760961;30;20032;-81
2024/03/08 07:42:18;;;;;;;27.25;15.70;;;;;;;3.97;100.00;92287.00;4751982;30;20052;-82
2024/03/08 07:44:45;;;;;;;29.55;16.95;;;;;;;3.97;100.00;92289.56;4760744;30;21248;-82
2024/03/08 07:47:12;;;;;;;26.00;15.55;;;;;;;4.08;100.00;92293.00;4762099;30;20109;-82
2024/03/08 07:49:37;;;;;;;30.23;17.15;;;;;;;4.08;100.00;92293.78;4753990;30;20520;-81
2024/03/08 07:52:04;;;;;;;26.10;15.82;;;;;;;4.10;100.00;92293.53;4753385;30;20052;-82
2024/03/08 07:54:30;;;;;;;25.52;16.13;;;;;;;4.12;100.00;92294.03;4763549;30;20470;-81
2024/03/08 07:56:56;;;;;;;29.50;15.77;;;;;;;4.13;100.00;92285.25;4756196;30;20121;-82
2024/03/08 07:59:22;;;;;;;26.48;15.80;;;;;;;4.13;100.00;92291.22;4752196;30;20114;-81
2024/03/08 08:01:47;;;;;;;26.58;15.90;;;;;;;4.13;100.00;92290.44;4765406;30;20048;-82
2024/03/08 08:04:15;;;;;;;26.58;16.42;;;;;;;4.16;100.00;92295.88;4761388;30;20070;-83
2024/03/08 08:06:41;;;;;;;30.10;16.67;;;;;;;4.16;100.00;92295.13;4760046;30;20044;-81
2024/03/08 08:09:14;;;;;;;32.10;16.23;;;;;;;4.21;100.00;92291.75;4759524;30;20124;-83
2024/03/08 08:11:41;;;;;;;28.75;15.88;;;;;;;4.23;100.00;92295.66;4757311;30;20059;-82
2024/03/08 08:14:09;;;;;;;30.13;16.25;;;;;;;4.27;100.00;92296.72;4735625;30;20044;-83
2024/03/08 08:16:36;;;;;;;25.33;15.88;;;;;;;4.36;100.00;92300.41;4765117;30;20051;-82
2024/03/08 08:19:07;;;;;;;27.83;15.43;;;;;;;4.34;100.00;92297.28;4759951;30;20040;-81
2024/03/08 08:21:38;;;;;;;28.65;16.00;;;;;;;4.27;100.00;92291.53;4758237;30;20038;-82
2024/03/08 08:24:04;;;;;;;36.15;16.80;;;;;;;4.41;100.00;92299.63;4758940;30;20051;-81
2024/03/08 08:26:30;;;;;;;31.10;16.45;;;;;;;4.38;100.00;92295.75;4754507;30;20043;-82
2024/03/08 08:28:56;;;;;;;31.45;16.45;;;;;;;4.29;100.00;92292.06;4760243;30;20060;-82
2024/03/08 08:31:22;;;;;;;23.88;12.30;;;;;;;4.43;100.00;92297.56;4760029;30;20111;-82
2024/03/08 08:33:50;;;;;;;23.77;13.73;;;;;;;4.52;100.00;92290.09;4752756;30;20028;-82
2024/03/08 08:36:15;;;;;;;27.98;16.30;;;;;;;4.31;100.00;92297.78;4760334;30;20103;-82
2024/03/08 08:38:44;;;;;;;13.85;7.60;;;;;;;4.28;100.00;92290.53;4764321;30;20039;-79
2024/03/08 08:41:11;;;;;;;25.83;13.80;;;;;;;4.19;100.00;92294.63;4753342;30;20106;-83
2024/03/08 08:43:36;;;;;;;24.00;13.52;;;;;;;4.11;100.00;92282.91;4762553;30;20047;-83
2024/03/08 08:46:02;;;;;;;24.13;14.32;;;;;;;4.16;100.00;92290.69;4757798;30;20048;-83
2024/03/08 08:48:29;;;;;;;21.55;13.60;;;;;;;4.26;100.00;92297.00;4761659;30;20189;-81
2024/03/08 08:50:55;;;;;;;26.98;13.77;;;;;;;4.30;100.00;92291.06;4763916;30;20221;-83
2024/03/08 08:53:21;;;;;;;27.30;14.65;;;;;;;4.13;100.00;92295.63;4753306;30;20063;-82
2024/03/08 08:55:47;;;;;;;18.40;9.85;;;;;;;4.11;100.00;92297.69;4762855;30;20083;-82
2024/03/08 08:58:13;;;;;;;14.90;8.30;;;;;;;4.19;100.00;92294.63;4760387;30;20066;-82
2024/03/08 09:00:39;;;;;;;26.33;15.98;;;;;;;4.09;100.00;92286.78;4762351;30;20044;-82
2024/03/08 09:03:06;;;;;;;30.10;16.77;;;;;;;4.11;100.00;92293.28;4754240;30;20051;-81
2024/03/08 09:05:33;;;;;;;27.60;15.27;;;;;;;4.03;100.00;92295.56;4761973;30;20047;-81
2024/03/08 09:08:00;;;;;;;30.95;15.45;;;;;;;4.02;100.00;92294.00;4762295;30;20032;-81
2024/03/08 09:10:25;;;;;;;19.05;11.73;;;;;;;4.19;100.00;92292.03;4755156;30;20502;-83
2024/03/08 09:12:51;;;;;;;18.15;10.73;;;;;;;4.20;100.00;92296.19;4755950;30;20063;-82
2024/03/08 09:15:20;;;;;;;24.95;14.73;;;;;;;3.92;100.00;92290.31;4765884;30;20063;-82
2024/03/08 09:17:46;;;;;;;25.60;14.93;;;;;;;3.99;100.00;92295.28;4763633;30;20044;-81
2024/03/08 09:20:14;;;;;;;25.52;15.00;;;;;;;4.07;100.00;92291.44;4759543;30;20439;-83
2024/03/08 09:22:43;;;;;;;26.83;13.65;;;;;;;4.17;100.00;92287.09;4757191;30;20047;-83
2024/03/08 09:25:09;;;;;;;21.25;12.68;;;;;;;4.25;100.00;92283.25;4765626;30;20043;-82
2024/03/08 09:27:35;;;;;;;27.77;14.98;;;;;;;4.34;100.00;92292.09;4765480;30;20052;-81
2024/03/08 09:30:01;;;;;;;23.92;14.75;;;;;;;4.32;100.00;92288.19;4761565;30;20055;-81
2024/03/08 09:32:26;;;;;;;28.20;15.43;;;;;;;4.35;100.00;92280.72;4760346;30;20047;-82
2024/03/08 09:34:52;;;;;;;25.40;15.35;;;;;;;4.40;100.00;92282.53;4762185;30;20027;-83
2024/03/08 09:37:18;;;;;;;17.13;9.88;;;;;;;4.51;100.00;92284.16;4761346;30;20097;-81
2024/03/08 09:39:44;;;;;;;24.65;14.35;;;;;;;4.52;100.00;92287.50;4767789;30;20040;-83
2024/03/08 09:42:14;;;;;;;25.02;13.57;;;;;;;4.52;100.00;92279.72;4759208;30;20051;-81
2024/03/08 09:44:47;;;;;;;15.25;9.68;;;;;;;4.54;100.00;92291.41;4749062;30;20040;-82
2024/03/08 09:47:16;;;;;;;28.73;14.63;;;;;;;4.41;100.00;92288.50;4763426;30;20040;-82
2024/03/08 09:49:43;;;;;;;22.25;13.48;;;;;;;4.38;100.00;92285.38;4755066;30;20405;-83
2024/03/08 09:52:10;;;;;;;22.42;13.82;;;;;;;4.48;100.00;92287.25;4759366;30;20124;-82
2024/03/08 09:54:36;;;;;;;16.52;9.32;;;;;;;4.59;100.00;92290.66;4756978;30;20052;-83
2024/03/08 09:57:04;;;;;;;17.25;11.88;;;;;;;4.48;100.00;92284.66;4758356;30;20115;-83
2024/03/08 09:59:48;;;;;;;14.15;8.23;;;;;;;4.27;100.00;92295.94;4762191;30;20048;-81
2024/03/08 10:02:15;;;;;;;17.77;10.40;;;;;;;4.31;100.00;92292.59;4760017;30;20233;-81
2024/03/08 10:04:46;;;;;;;22.13;13.27;;;;;;;4.29;100.00;92297.25;4760069;30;20234;-81
2024/03/08 10:07:12;;;;;;;21.33;12.75;;;;;;;4.24;100.00;92289.47;4764397;30;20113;-82
2024/03/08 10:09:47;;;;;;;19.13;9.60;;;;;;;4.29;100.00;92297.25;4758948;30;20122;-83
2024/03/08 10:12:12;;;;;;;16.45;7.57;;;;;;;4.24;100.00;92297.25;4768258;30;20043;-82
2024/03/08 10:14:40;;;;;;;19.08;10.40;;;;;;;4.20;100.00;92291.00;4754322;30;20032;-82
2024/03/08 10:17:07;;;;;;;17.15;7.43;;;;;;;4.24;100.00;92297.25;4764150;30;20111;-83
2024/03/08 10:19:32;;;;;;;17.27;10.32;;;;;;;4.30;100.00;92296.25;4761095;30;20036;-83
2024/03/08 10:21:58;;;;;;;25.20;12.77;;;;;;;4.37;100.00;92299.38;4770265;30;20412;-83
2024/03/08 10:24:24;;;;;;;16.55;9.02;;;;;;;4.31;100.00;92287.41;4762499;30;20044;-82
2024/03/08 10:26:58;;;;;;;14.63;8.82;;;;;;;4.27;100.00;92296.72;4772338;30;20545;-83
2024/03/08 10:29:23;;;;;;;19.20;10.88;;;;;;;4.22;100.00;92295.94;4762950;30;20052;-83
2024/03/08 10:31:50;;;;;;;22.40;13.77;;;;;;;4.24;100.00;92297.25;4755615;30;20062;-83
2024/03/08 10:34:16;;;;;;;21.77;12.95;;;;;;;4.25;100.00;92293.59;4749141;30;20047;-82
2024/03/08 10:36:41;;;;;;;15.73;9.95;;;;;;;4.40;100.00;92287.72;4765522;30;20467;-81
2024/03/08 10:39:20;;;;;;;19.08;12.80;;;;;;;4.40;100.00;92292.91;4763048;30;20076;-82
2024/03/08 10:41:53;;;;;;;10.73;6.72;;;;;;;4.62;100.00;92286.78;4762181;30;20037;-83
2024/03/08 10:44:28;;;;;;;19.40;11.43;;;;;;;4.68;100.00;92286.53;4762437;30;20052;-81
2024/03/08 10:47:05;;;;;;;14.30;8.77;;;;;;;4.73;100.00;92281.38;4761622;30;20052;-83
2024/03/08 10:50:03;;;;;;;8.35;5.25;;;;;;;4.84;100.00;92289.16;4757473;30;20044;-83
2024/03/08 10:52:31;;;;;;;19.92;12.60;;;;;;;4.75;100.00;92291.47;4764242;30;20062;-83
2024/03/08 10:54:58;;;;;;;21.13;10.90;;;;;;;4.84;100.00;92289.97;4758502;30;20709;-82
2024/03/08 10:57:24;;;;;;;13.65;7.68;;;;;;;4.73;100.00;92283.19;4765950;30;20052;-80
2024/03/08 10:59:51;;;;;;;21.60;10.95;;;;;;;4.70;100.00;92284.47;4762032;30;20055;-79
2024/03/08 11:02:19;;;;;;;13.95;8.10;;;;;;;4.82;100.00;92291.25;4750569;30;20497;-77
2024/03/08 11:04:49;;;;;;;23.50;10.50;;;;;;;4.61;100.00;92291.16;4751259;30;20488;-80
2024/03/08 11:07:19;;;;;;;16.65;10.48;;;;;;;4.61;100.00;92288.56;4763791;30;20036;-80
2024/03/08 11:09:47;;;;;;;18.15;10.38;;;;;;;4.46;100.00;92288.50;4763785;30;20044;-80
2024/03/08 11:12:29;;;;;;;18.42;11.43;;;;;;;4.57;100.00;92279.75;4761387;30;20647;-80
2024/03/08 11:15:18;;;;;;;19.98;11.27;;;;;;;4.79;100.00;92275.16;4758275;30;20050;-81
2024/03/08 11:17:48;;;;;;;21.33;11.35;;;;;;;5.16;100.00;92281.22;4763796;30;20115;-81